createdAt,value
2019-01-27T00:00:49.983Z,16.9
2019-01-27T00:02:50.090Z,16.9
2019-01-27T00:04:49.524Z,17.2
2019-01-27T00:06:49.909Z,17.5
2019-01-27T00:08:50.002Z,18.9
2019-01-27T00:10:50.058Z,21.4
2019-01-27T00:12:50.067Z,21.4
2019-01-27T00:14:50.130Z,19.2
2019-01-27T00:16:50.352Z,18.8
2019-01-27T00:18:49.467Z,19.3
2019-01-27T00:20:49.610Z,19.9
2019-01-27T00:22:49.623Z,19.9
2019-01-27T00:24:49.758Z,18.4
2019-01-27T00:26:50.024Z,18.4
2019-01-27T00:28:50.092Z,18.7
2019-01-27T00:30:50.116Z,18.7
2019-01-27T00:32:50.119Z,19.5
2019-01-27T00:34:50.434Z,19.7
2019-01-27T00:36:49.841Z,19.7
2019-01-27T00:38:49.888Z,17.3
2019-01-27T00:40:49.976Z,17.3
2019-01-27T00:42:50.010Z,17.6
2019-01-27T00:44:49.981Z,18.1
2019-01-27T00:46:50.264Z,17.6
2019-01-27T00:48:50.315Z,17.6
2019-01-27T00:50:50.383Z,18.5
2019-01-27T00:52:49.435Z,17.6
2019-01-27T00:54:49.481Z,18.2
2019-01-27T00:56:49.820Z,18.2
2019-01-27T00:58:49.954Z,18.1
2019-01-27T01:00:50.029Z,17.8
2019-01-27T01:02:50.111Z,16.8
2019-01-27T01:04:49.640Z,17.4
2019-01-27T01:06:49.905Z,17.4
2019-01-27T01:08:49.977Z,17.2
2019-01-27T01:10:50.017Z,18.1
2019-01-27T01:12:50.356Z,17.0
2019-01-27T01:14:49.536Z,17.0
2019-01-27T01:16:49.914Z,18.1
2019-01-27T01:18:49.896Z,18.1
2019-01-27T01:20:49.996Z,16.7
2019-01-27T01:22:50.088Z,18.3
2019-01-27T01:24:50.162Z,16.7
2019-01-27T01:26:49.593Z,16.6
2019-01-27T01:28:49.885Z,16.6
2019-01-27T01:30:49.914Z,17.0
2019-01-27T01:32:49.921Z,17.2
2019-01-27T01:34:50.368Z,17.2
2019-01-27T01:36:49.587Z,15.9
2019-01-27T01:38:49.706Z,15.9
2019-01-27T01:40:49.792Z,16.5
2019-01-27T01:42:49.888Z,15.2
2019-01-27T01:44:49.997Z,14.6
2019-01-27T01:46:50.375Z,15.2
2019-01-27T01:48:50.412Z,15.2
2019-01-27T01:50:49.534Z,15.4
2019-01-27T01:52:49.669Z,16.2
2019-01-27T01:54:49.726Z,15.5
2019-01-27T01:56:49.913Z,15.5
2019-01-27T01:58:49.962Z,15.5
2019-01-27T02:00:50.049Z,15.9
2019-01-27T02:02:50.177Z,16.3
2019-01-27T02:04:49.576Z,15.5
2019-01-27T02:06:49.928Z,15.5
2019-01-27T02:08:49.966Z,14.9
2019-01-27T02:10:50.039Z,14.8
2019-01-27T02:12:50.184Z,15.1
2019-01-27T02:14:50.363Z,14.8
2019-01-27T02:16:49.503Z,14.8
2019-01-27T02:18:49.696Z,14.1
2019-01-27T02:20:49.776Z,13.6
2019-01-27T02:22:49.809Z,13.0
2019-01-27T02:24:49.829Z,12.5
2019-01-27T02:26:50.060Z,12.5
2019-01-27T02:28:50.136Z,12.0
2019-01-27T02:30:50.176Z,13.5
2019-01-27T02:32:50.190Z,12.8
2019-01-27T02:34:49.465Z,12.7
2019-01-27T02:36:49.780Z,12.7
2019-01-27T02:38:49.874Z,13.1
2019-01-27T02:40:49.962Z,12.2
2019-01-27T02:42:49.962Z,12.9
2019-01-27T02:44:49.938Z,12.3
2019-01-27T02:46:50.115Z,12.3
2019-01-27T02:48:50.168Z,13.2
2019-01-27T02:50:50.135Z,12.8
2019-01-27T02:52:50.146Z,11.7
2019-01-27T02:54:50.102Z,11.7
2019-01-27T02:56:50.285Z,12.4
2019-01-27T02:58:50.261Z,12.5
2019-01-27T03:00:50.281Z,12.5
2019-01-27T03:02:50.400Z,12.5
2019-01-27T03:04:49.916Z,12.5
2019-01-27T03:06:50.168Z,12.7
2019-01-27T03:08:50.266Z,12.9
2019-01-27T03:10:50.301Z,13.5
2019-01-27T03:12:50.381Z,13.5
2019-01-27T03:14:49.471Z,13.1
2019-01-27T03:16:49.759Z,14.0
2019-01-27T03:18:49.852Z,13.5
2019-01-27T03:20:49.952Z,13.9
2019-01-27T03:22:50.023Z,13.9
2019-01-27T03:24:50.050Z,13.4
2019-01-27T03:26:50.333Z,15.2
2019-01-27T03:28:49.552Z,13.8
2019-01-27T03:30:49.726Z,15.2
2019-01-27T03:32:49.897Z,13.9
2019-01-27T03:34:50.228Z,13.9
2019-01-27T03:36:49.464Z,14.5
2019-01-27T03:38:49.582Z,14.9
2019-01-27T03:40:49.718Z,17.0
2019-01-27T03:42:49.811Z,17.0
2019-01-27T03:44:49.946Z,13.3
2019-01-27T03:46:50.113Z,13.7
2019-01-27T03:48:50.173Z,15.1
2019-01-27T03:50:50.241Z,14.2
2019-01-27T03:52:50.359Z,14.2
2019-01-27T03:54:50.405Z,14.1
2019-01-27T03:56:49.746Z,14.2
2019-01-27T03:58:49.795Z,14.2
2019-01-27T04:00:49.835Z,14.4
2019-01-27T04:02:49.952Z,14.2
2019-01-27T04:04:49.456Z,14.0
2019-01-27T04:06:49.789Z,14.0
2019-01-27T04:08:49.863Z,14.0
2019-01-27T04:10:49.932Z,15.0
2019-01-27T04:12:49.968Z,15.0
2019-01-27T04:14:50.038Z,14.4
2019-01-27T04:16:50.276Z,14.7
2019-01-27T04:18:50.304Z,14.0
2019-01-27T04:20:50.289Z,14.0
2019-01-27T04:22:50.296Z,14.3
2019-01-27T04:24:49.477Z,15.1
2019-01-27T04:26:49.677Z,14.7
2019-01-27T04:28:49.812Z,13.1
2019-01-27T04:30:49.871Z,13.1
2019-01-27T04:32:49.978Z,14.1
2019-01-27T04:34:50.377Z,14.0
2019-01-27T04:36:49.756Z,14.8
2019-01-27T04:38:49.868Z,14.8
2019-01-27T04:40:49.934Z,12.8
2019-01-27T04:42:50.108Z,12.8
2019-01-27T04:44:50.246Z,13.6
2019-01-27T04:46:49.646Z,12.0
2019-01-27T04:48:49.790Z,12.7
2019-01-27T04:50:49.831Z,12.7
2019-01-27T04:52:49.974Z,12.9
2019-01-27T04:54:50.072Z,13.2
2019-01-27T04:56:50.410Z,12.7
2019-01-27T04:58:49.516Z,14.0
2019-01-27T05:00:49.737Z,14.0
2019-01-27T05:02:49.800Z,13.3
2019-01-27T05:04:50.194Z,12.7
2019-01-27T05:06:49.457Z,12.6
2019-01-27T05:08:49.591Z,12.6
2019-01-27T05:10:49.744Z,13.1
2019-01-27T05:12:49.802Z,13.3
2019-01-27T05:14:49.877Z,13.2
2019-01-27T05:16:50.080Z,14.1
2019-01-27T05:18:50.202Z,14.1
2019-01-27T05:20:50.265Z,12.8
2019-01-27T05:22:50.413Z,13.3
2019-01-27T05:24:49.437Z,12.0
2019-01-27T05:26:50.233Z,12.5
2019-01-27T05:28:50.305Z,12.5
2019-01-27T05:30:50.400Z,12.3
2019-01-27T05:32:49.467Z,11.8
2019-01-27T05:34:49.898Z,12.9
2019-01-27T05:36:50.127Z,12.4
2019-01-27T05:38:50.094Z,12.4
2019-01-27T05:40:50.155Z,12.4
2019-01-27T05:42:50.136Z,12.4
2019-01-27T05:44:50.224Z,13.0
2019-01-27T05:46:50.424Z,13.0
2019-01-27T05:48:49.537Z,11.5
2019-01-27T05:50:49.584Z,11.7
2019-01-27T05:52:49.654Z,11.4
2019-01-27T05:54:49.710Z,12.6
2019-01-27T05:56:56.423Z,12.6
2019-01-27T05:58:49.780Z,11.3
2019-01-27T06:00:49.902Z,11.4
2019-01-27T06:02:49.937Z,11.4
2019-01-27T06:04:50.320Z,11.6
2019-01-27T06:06:49.626Z,10.8
2019-01-27T06:08:49.676Z,11.2
2019-01-27T06:10:49.719Z,11.6
2019-01-27T06:12:49.725Z,12.4
2019-01-27T06:14:49.760Z,12.4
2019-01-27T06:16:49.994Z,10.0
2019-01-27T06:18:50.103Z,10.2
2019-01-27T06:20:50.332Z,10.4
2019-01-27T06:22:50.441Z,9.9
2019-01-27T06:24:49.589Z,12.2
2019-01-27T06:26:49.914Z,12.2
2019-01-27T06:28:50.144Z,9.9
2019-01-27T06:30:50.166Z,9.1
2019-01-27T06:32:50.158Z,9.4
2019-01-27T06:34:49.563Z,9.2
2019-01-27T06:36:49.878Z,9.2
2019-01-27T06:38:49.980Z,8.9
2019-01-27T06:40:50.032Z,9.2
2019-01-27T06:42:49.979Z,9.4
2019-01-27T06:44:50.064Z,9.4
2019-01-27T06:46:50.331Z,8.9
2019-01-27T06:48:50.292Z,8.5
2019-01-27T06:50:49.444Z,8.2
2019-01-27T06:52:49.578Z,8.2
2019-01-27T06:54:49.621Z,9.1
2019-01-27T06:56:49.965Z,8.5
2019-01-27T06:58:49.950Z,8.8
2019-01-27T07:00:50.079Z,8.2
2019-01-27T07:02:49.599Z,7.7
2019-01-27T07:04:50.133Z,7.7
2019-01-27T07:06:50.318Z,8.3
2019-01-27T07:08:50.391Z,7.8
2019-01-27T07:10:49.495Z,8.4
2019-01-27T07:12:49.570Z,8.4
2019-01-27T07:14:49.820Z,7.8
2019-01-27T07:16:49.990Z,9.0
2019-01-27T07:18:50.017Z,8.8
2019-01-27T07:20:50.073Z,8.8
2019-01-27T07:22:49.799Z,8.4
2019-01-27T07:24:49.836Z,7.9
2019-01-27T07:26:50.123Z,7.8
2019-01-27T07:28:49.468Z,7.3
2019-01-27T07:30:49.435Z,7.4
2019-01-27T07:32:50.380Z,7.8
2019-01-27T07:34:49.920Z,7.8
2019-01-27T07:36:50.198Z,7.5
2019-01-27T07:38:50.269Z,9.0
2019-01-27T07:40:50.308Z,8.4
2019-01-27T07:42:50.332Z,8.4
2019-01-27T07:44:49.479Z,7.7
2019-01-27T07:46:49.694Z,7.8
2019-01-27T07:48:49.794Z,7.3
2019-01-27T07:50:49.864Z,7.3
2019-01-27T07:52:49.903Z,7.6
2019-01-27T07:54:49.966Z,7.7
2019-01-27T07:56:50.282Z,7.8
2019-01-27T07:58:50.331Z,8.4
2019-01-27T08:00:49.445Z,9.3
2019-01-27T08:02:49.582Z,9.3
2019-01-27T08:04:49.909Z,8.2
2019-01-27T08:06:49.543Z,9.4
2019-01-27T08:08:49.593Z,9.4
2019-01-27T08:10:50.347Z,7.8
2019-01-27T08:12:49.592Z,8.6
2019-01-27T08:14:49.620Z,8.6
2019-01-27T08:16:49.945Z,8.8
2019-01-27T08:18:50.061Z,7.9
2019-01-27T08:20:50.261Z,7.9
2019-01-27T08:22:50.439Z,8.2
2019-01-27T08:24:49.649Z,7.8
2019-01-27T08:26:49.983Z,9.3
2019-01-27T08:28:50.047Z,9.3
2019-01-27T08:30:50.198Z,8.2
2019-01-27T08:32:50.347Z,7.9
2019-01-27T08:34:49.726Z,8.5
2019-01-27T08:36:50.000Z,8.5
2019-01-27T08:38:50.049Z,8.2
2019-01-27T08:40:50.243Z,8.2
2019-01-27T08:42:50.384Z,7.6
2019-01-27T08:44:49.469Z,9.6
2019-01-27T08:46:49.712Z,10.2
2019-01-27T08:48:49.694Z,10.2
2019-01-27T08:50:49.722Z,8.0
2019-01-27T08:52:49.753Z,8.0
2019-01-27T08:54:49.870Z,7.8
2019-01-27T08:56:50.177Z,8.2
2019-01-27T08:58:50.225Z,8.2
2019-01-27T09:00:50.414Z,7.9
2019-01-27T09:02:49.515Z,7.9
2019-01-27T09:04:50.124Z,8.2
2019-01-27T09:06:50.442Z,7.4
2019-01-27T09:08:49.497Z,7.4
2019-01-27T09:10:49.672Z,6.3
2019-01-27T09:12:49.485Z,7.3
2019-01-27T09:14:49.566Z,8.0
2019-01-27T09:16:49.973Z,7.1
2019-01-27T09:18:50.076Z,7.2
2019-01-27T09:20:50.084Z,7.2
2019-01-27T09:22:50.156Z,6.9
2019-01-27T09:24:50.219Z,6.9
2019-01-27T09:26:49.446Z,6.9
2019-01-27T09:28:50.426Z,6.8
2019-01-27T09:30:49.898Z,7.1
2019-01-27T09:32:49.963Z,6.7
2019-01-27T09:34:49.499Z,7.0
2019-01-27T09:36:49.601Z,7.0
2019-01-27T09:38:50.152Z,8.3
2019-01-27T09:40:50.075Z,10.9
2019-01-27T09:42:50.156Z,7.0
2019-01-27T09:44:50.317Z,7.0
2019-01-27T09:46:49.609Z,7.0
2019-01-27T09:48:49.838Z,6.3
2019-01-27T09:50:50.052Z,6.6
2019-01-27T09:52:50.310Z,6.3
2019-01-27T09:54:50.402Z,6.6
2019-01-27T09:56:49.749Z,6.6
2019-01-27T09:58:49.754Z,7.0
2019-01-27T10:00:50.408Z,6.4
2019-01-27T10:02:49.465Z,6.2
2019-01-27T10:04:49.996Z,6.2
2019-01-27T10:06:50.176Z,7.1
2019-01-27T10:08:50.182Z,7.1
2019-01-27T10:10:50.170Z,6.1
2019-01-27T10:12:50.199Z,5.8
2019-01-27T10:14:50.303Z,6.0
2019-01-27T10:16:49.457Z,6.0
2019-01-27T10:18:49.462Z,5.9
2019-01-27T10:20:49.577Z,5.9
2019-01-27T10:22:49.668Z,6.4
2019-01-27T10:24:49.844Z,7.8
2019-01-27T10:26:50.047Z,7.8
2019-01-27T10:28:50.115Z,6.0
2019-01-27T10:30:50.081Z,5.7
2019-01-27T10:32:50.441Z,5.5
2019-01-27T10:34:50.033Z,5.5
2019-01-27T10:36:50.289Z,5.5
2019-01-27T10:38:50.275Z,5.2
2019-01-27T10:40:50.319Z,5.6
2019-01-27T10:42:49.448Z,5.5
2019-01-27T10:44:49.440Z,5.1
2019-01-27T10:46:49.707Z,5.1
2019-01-27T10:48:49.674Z,5.3
2019-01-27T10:50:49.880Z,5.4
2019-01-27T10:52:49.987Z,5.7
2019-01-27T10:54:50.058Z,5.7
2019-01-27T10:56:50.272Z,5.2
2019-01-27T10:58:50.340Z,4.9
2019-01-27T11:00:50.412Z,5.5
2019-01-27T11:02:49.509Z,4.8
2019-01-27T11:04:50.018Z,4.8
2019-01-27T11:06:49.481Z,5.5
2019-01-27T11:08:49.731Z,5.1
2019-01-27T11:10:49.932Z,4.6
2019-01-27T11:12:50.001Z,4.5
2019-01-27T11:14:50.120Z,4.5
2019-01-27T11:16:50.332Z,5.0
2019-01-27T11:18:50.367Z,4.7
2019-01-27T11:20:49.994Z,4.7
2019-01-27T11:22:50.129Z,5.0
2019-01-27T11:24:49.811Z,4.6
2019-01-27T11:26:49.469Z,4.6
2019-01-27T11:28:49.588Z,4.3
2019-01-27T11:30:49.667Z,4.3
2019-01-27T11:32:49.761Z,4.6
2019-01-27T11:34:50.233Z,4.6
2019-01-27T11:36:50.277Z,4.3
2019-01-27T11:38:50.094Z,4.3
2019-01-27T11:40:50.017Z,4.3
2019-01-27T11:42:50.249Z,4.3
2019-01-27T11:44:49.743Z,4.0
2019-01-27T11:46:50.415Z,3.8
2019-01-27T11:48:49.691Z,3.8
2019-01-27T11:50:49.934Z,4.0
2019-01-27T11:52:50.145Z,5.0
2019-01-27T11:54:50.368Z,3.6
2019-01-27T11:56:49.896Z,4.0
2019-01-27T11:58:50.122Z,3.9
2019-01-27T12:00:50.315Z,4.0
2019-01-27T12:02:49.587Z,4.0
2019-01-27T12:04:50.013Z,3.6
2019-01-27T12:06:50.239Z,3.6
2019-01-27T12:08:50.377Z,3.6
2019-01-27T12:10:50.399Z,3.5
2019-01-27T12:12:49.590Z,3.5
2019-01-27T12:14:49.689Z,3.4
2019-01-27T12:16:49.850Z,3.2
2019-01-27T12:18:49.954Z,3.7
2019-01-27T12:20:49.984Z,3.9
2019-01-27T12:22:50.082Z,3.9
2019-01-27T12:24:50.193Z,3.4
2019-01-27T12:26:49.701Z,3.3
2019-01-27T12:28:49.978Z,3.2
2019-01-27T12:30:50.169Z,3.2
2019-01-27T12:32:50.372Z,3.6
2019-01-27T12:34:50.038Z,2.9
2019-01-27T12:36:49.440Z,3.0
2019-01-27T12:38:49.761Z,3.2
2019-01-27T12:40:50.047Z,3.2
2019-01-27T12:42:50.354Z,4.7
2019-01-27T12:44:49.641Z,2.8
2019-01-27T12:46:50.018Z,2.8
2019-01-27T12:48:50.226Z,2.8
2019-01-27T12:50:49.544Z,2.6
2019-01-27T12:52:49.761Z,2.5
2019-01-27T12:54:49.980Z,2.8
2019-01-27T12:56:49.444Z,2.5
2019-01-27T12:58:49.656Z,2.5
2019-01-27T13:00:49.792Z,2.4
2019-01-27T13:02:49.855Z,2.9
2019-01-27T13:04:50.182Z,2.8
2019-01-27T13:06:50.265Z,2.4
2019-01-27T13:08:50.262Z,2.6
2019-01-27T13:10:50.239Z,2.6
2019-01-27T13:12:50.280Z,2.6
2019-01-27T13:14:49.517Z,3.0
2019-01-27T13:16:49.939Z,2.5
2019-01-27T13:18:50.064Z,2.4
2019-01-27T13:20:50.225Z,2.4
2019-01-27T13:22:49.458Z,2.4
2019-01-27T13:24:49.616Z,2.4
2019-01-27T13:26:50.048Z,2.5
2019-01-27T13:28:50.281Z,2.5
2019-01-27T13:30:49.480Z,2.2
2019-01-27T13:32:49.681Z,1.9
2019-01-27T13:34:49.434Z,2.3
2019-01-27T13:36:49.982Z,2.3
2019-01-27T13:38:51.081Z,1.9
2019-01-27T13:40:50.448Z,2.0
2019-01-27T13:42:49.985Z,1.9
2019-01-27T13:44:49.992Z,1.9
2019-01-27T13:46:50.251Z,1.9
2019-01-27T13:48:50.327Z,1.7
2019-01-27T13:50:49.632Z,1.8
2019-01-27T13:52:49.956Z,1.8
2019-01-27T13:54:50.172Z,2.0
2019-01-27T13:56:49.722Z,2.0
2019-01-27T13:58:49.902Z,1.8
2019-01-27T14:00:49.918Z,2.1
2019-01-27T14:02:49.917Z,2.2
2019-01-27T14:04:50.313Z,2.4
2019-01-27T14:06:49.487Z,2.4
2019-01-27T14:08:49.671Z,2.4
2019-01-27T14:10:49.852Z,2.1
2019-01-27T14:12:50.069Z,2.3
2019-01-27T14:14:50.263Z,1.9
2019-01-27T14:16:49.773Z,1.9
2019-01-27T14:18:50.005Z,1.9
2019-01-27T14:20:50.266Z,2.0
2019-01-27T14:22:49.475Z,1.9
2019-01-27T14:24:49.754Z,2.0
2019-01-27T14:26:50.101Z,2.0
2019-01-27T14:28:50.295Z,2.0
2019-01-27T14:30:49.586Z,2.0
2019-01-27T14:32:49.834Z,2.1
2019-01-27T14:34:49.484Z,2.1
2019-01-27T14:36:49.763Z,2.1
2019-01-27T14:38:49.826Z,2.1
2019-01-27T14:40:49.879Z,2.1
2019-01-27T14:42:49.934Z,2.1
2019-01-27T14:44:49.982Z,1.8
2019-01-27T14:46:50.321Z,1.9
2019-01-27T14:48:50.359Z,1.9
2019-01-27T14:50:49.583Z,1.7
2019-01-27T14:52:49.706Z,1.7
2019-01-27T14:54:49.700Z,1.8
2019-01-27T14:56:49.824Z,1.9
2019-01-27T14:58:49.892Z,2.0
2019-01-27T15:00:49.922Z,1.9
2019-01-27T15:02:49.966Z,1.9
2019-01-27T15:04:50.422Z,1.9
2019-01-27T15:06:49.779Z,1.9
2019-01-27T15:08:49.842Z,1.9
2019-01-27T15:10:49.870Z,2.0
2019-01-27T15:12:49.991Z,2.2
2019-01-27T15:14:50.069Z,2.2
2019-01-27T15:16:50.348Z,2.2
2019-01-27T15:18:50.404Z,1.3
2019-01-27T15:20:50.433Z,1.6
2019-01-27T15:22:49.537Z,1.6
2019-01-27T15:24:49.627Z,1.7
2019-01-27T15:26:50.030Z,1.4
2019-01-27T15:28:50.140Z,1.4
2019-01-27T15:30:50.277Z,1.5
2019-01-27T15:32:50.334Z,1.5
2019-01-27T15:34:49.652Z,1.7
2019-01-27T15:36:49.786Z,2.0
2019-01-27T15:38:49.766Z,1.7
2019-01-27T15:40:49.825Z,1.7
2019-01-27T15:42:49.911Z,1.7
2019-01-27T15:44:50.047Z,1.6
2019-01-27T15:46:50.340Z,1.3
2019-01-27T15:48:49.471Z,1.4
2019-01-27T15:50:49.582Z,1.2
2019-01-27T15:52:49.596Z,1.2
2019-01-27T15:54:49.747Z,1.2
2019-01-27T15:56:49.965Z,1.5
2019-01-27T15:58:49.976Z,1.9
2019-01-27T16:00:49.967Z,1.8
2019-01-27T16:02:50.002Z,1.8
2019-01-27T16:04:49.484Z,1.8
2019-01-27T16:06:49.676Z,1.8
2019-01-27T16:08:49.712Z,1.7
2019-01-27T16:10:49.700Z,1.7
2019-01-27T16:12:49.717Z,1.7
2019-01-27T16:14:49.730Z,2.3
2019-01-27T16:16:49.981Z,1.9
2019-01-27T16:18:50.041Z,2.0
2019-01-27T16:20:50.142Z,2.0
2019-01-27T16:22:50.170Z,2.4
2019-01-27T16:24:50.170Z,2.1
2019-01-27T16:26:49.519Z,3.2
2019-01-27T16:28:49.556Z,3.5
2019-01-27T16:30:49.670Z,3.5
2019-01-27T16:32:50.158Z,2.1
2019-01-27T16:34:49.489Z,2.8
2019-01-27T16:36:49.963Z,2.4
2019-01-27T16:38:50.175Z,2.1
2019-01-27T16:40:50.334Z,2.1
2019-01-27T16:42:50.446Z,2.5
2019-01-27T16:44:49.492Z,3.1
2019-01-27T16:46:49.712Z,2.6
2019-01-27T16:48:49.760Z,3.1
2019-01-27T16:50:49.762Z,3.1
2019-01-27T16:52:49.850Z,3.1
2019-01-27T16:54:49.863Z,2.8
2019-01-27T16:56:50.080Z,2.8
2019-01-27T16:58:50.212Z,2.5
2019-01-27T17:00:50.261Z,2.5
2019-01-27T17:02:50.352Z,2.8
2019-01-27T17:04:49.764Z,3.2
2019-01-27T17:06:49.956Z,3.0
2019-01-27T17:08:50.036Z,3.0
2019-01-27T17:10:50.039Z,3.4
2019-01-27T17:12:50.019Z,2.7
2019-01-27T17:14:50.142Z,2.7
2019-01-27T17:16:50.256Z,3.0
2019-01-27T17:18:50.327Z,3.0
2019-01-27T17:20:50.298Z,3.0
2019-01-27T17:22:50.323Z,3.9
2019-01-27T17:24:50.443Z,3.1
2019-01-27T17:26:49.671Z,3.1
2019-01-27T17:28:50.394Z,3.1
2019-01-27T17:30:50.405Z,3.0
2019-01-27T17:32:50.425Z,3.9
2019-01-27T17:34:49.899Z,4.6
2019-01-27T17:36:50.061Z,3.2
2019-01-27T17:38:50.114Z,3.2
2019-01-27T17:40:50.078Z,3.3
2019-01-27T17:42:50.018Z,3.1
2019-01-27T17:44:50.057Z,3.1
2019-01-27T17:46:49.443Z,3.2
2019-01-27T17:48:49.499Z,3.2
2019-01-27T17:50:49.582Z,3.2
2019-01-27T17:52:49.661Z,2.8
2019-01-27T17:54:49.683Z,3.3
2019-01-27T17:56:50.029Z,3.3
2019-01-27T17:58:54.256Z,3.6
2019-01-27T18:00:49.661Z,3.1
2019-01-27T18:02:49.722Z,3.3
2019-01-27T18:04:49.980Z,3.2
2019-01-27T18:06:50.200Z,3.2
2019-01-27T18:08:50.206Z,3.0
2019-01-27T18:10:50.342Z,3.6
2019-01-27T18:12:49.470Z,3.0
2019-01-27T18:14:49.476Z,3.2
2019-01-27T18:16:49.857Z,3.2
2019-01-27T18:18:49.877Z,3.3
2019-01-27T18:20:49.934Z,3.1
2019-01-27T18:22:50.039Z,3.1
2019-01-27T18:24:50.111Z,5.5
2019-01-27T18:26:49.473Z,5.5
2019-01-27T18:28:51.789Z,3.0
2019-01-27T18:30:50.063Z,3.1
2019-01-27T18:32:50.261Z,3.1
2019-01-27T18:34:49.807Z,2.9
2019-01-27T18:36:50.206Z,3.1
2019-01-27T18:38:50.349Z,3.1
2019-01-27T18:40:50.340Z,3.5
2019-01-27T18:42:49.627Z,3.5
2019-01-27T18:44:49.907Z,4.4
2019-01-27T18:46:49.678Z,5.3
2019-01-27T18:48:49.813Z,3.4
2019-01-27T18:50:49.978Z,3.4
2019-01-27T18:52:50.080Z,3.4
2019-01-27T18:54:50.191Z,3.5
2019-01-27T18:56:49.577Z,3.5
2019-01-27T18:58:49.768Z,3.5
2019-01-27T19:00:49.992Z,4.1
2019-01-27T19:02:50.155Z,3.9
2019-01-27T19:04:49.614Z,4.2
2019-01-27T19:06:49.755Z,4.2
2019-01-27T19:08:49.792Z,4.1
2019-01-27T19:10:49.931Z,4.1
2019-01-27T19:12:50.015Z,5.2
2019-01-27T19:14:50.150Z,5.2
2019-01-27T19:16:49.479Z,4.0
2019-01-27T19:18:49.616Z,5.3
2019-01-27T19:20:49.767Z,3.8
2019-01-27T19:22:49.908Z,3.6
2019-01-27T19:24:50.032Z,3.6
2019-01-27T19:26:50.264Z,4.1
2019-01-27T19:28:49.470Z,3.3
2019-01-27T19:30:50.304Z,3.9
2019-01-27T19:32:49.482Z,3.4
2019-01-27T19:34:50.059Z,3.4
2019-01-27T19:36:50.092Z,3.6
2019-01-27T19:38:50.231Z,4.9
2019-01-27T19:40:50.219Z,3.1
2019-01-27T19:42:49.862Z,3.1
2019-01-27T19:44:50.013Z,3.7
2019-01-27T19:46:50.446Z,3.2
2019-01-27T19:48:49.519Z,3.3
2019-01-27T19:50:49.783Z,3.6
2019-01-27T19:52:49.666Z,3.6
2019-01-27T19:54:49.769Z,3.5
2019-01-27T19:56:50.123Z,3.7
2019-01-27T19:58:50.172Z,3.2
2019-01-27T20:00:50.274Z,3.7
2019-01-27T20:02:50.104Z,3.7
2019-01-27T20:04:50.442Z,4.1
2019-01-27T20:06:49.888Z,3.8
2019-01-27T20:08:49.937Z,4.4
2019-01-27T20:10:50.063Z,3.9
2019-01-27T20:12:50.121Z,3.9
2019-01-27T20:14:50.298Z,4.0
2019-01-27T20:16:49.699Z,4.1
2019-01-27T20:18:49.837Z,3.6
2019-01-27T20:20:49.950Z,3.6
2019-01-27T20:22:50.084Z,4.6
2019-01-27T20:24:50.184Z,4.2
2019-01-27T20:26:49.466Z,3.7
2019-01-27T20:28:50.326Z,3.7
2019-01-27T20:30:50.318Z,3.9
2019-01-27T20:32:49.464Z,3.9
2019-01-27T20:34:50.093Z,3.7
2019-01-27T20:36:50.353Z,3.7
2019-01-27T20:38:49.457Z,3.7
2019-01-27T20:40:49.625Z,4.8
2019-01-27T20:42:49.700Z,4.8
2019-01-27T20:44:50.214Z,3.0
2019-01-27T20:46:49.732Z,3.2
2019-01-27T20:48:49.810Z,4.0
2019-01-27T20:50:49.673Z,4.0
2019-01-27T20:52:49.777Z,3.3
2019-01-27T20:54:50.453Z,4.6
2019-01-27T20:56:49.702Z,4.3
2019-01-27T20:58:50.434Z,4.3
2019-01-27T21:00:50.435Z,3.7
2019-01-27T21:02:49.566Z,3.2
2019-01-27T21:04:50.052Z,3.2
2019-01-27T21:06:50.252Z,3.2
2019-01-27T21:08:50.381Z,3.2
2019-01-27T21:10:49.526Z,3.2
2019-01-27T21:12:49.654Z,3.3
2019-01-27T21:14:49.695Z,3.2
2019-01-27T21:16:49.977Z,2.9
2019-01-27T21:18:50.063Z,2.9
2019-01-27T21:20:53.512Z,3.1
2019-01-27T21:22:50.010Z,2.7
2019-01-27T21:24:50.073Z,2.7
2019-01-27T21:26:49.542Z,3.2
2019-01-27T21:28:49.632Z,3.2
2019-01-27T21:30:49.753Z,3.4
2019-01-27T21:32:49.851Z,3.0
2019-01-27T21:34:50.088Z,4.6
2019-01-27T21:36:50.458Z,4.6
2019-01-27T21:38:49.665Z,2.9
2019-01-27T21:40:49.700Z,2.7
2019-01-27T21:42:49.824Z,2.9
2019-01-27T21:44:50.043Z,3.4
2019-01-27T21:46:50.326Z,2.9
2019-01-27T21:48:49.503Z,2.9
2019-01-27T21:50:49.591Z,2.9
2019-01-27T21:52:49.684Z,3.7
2019-01-27T21:54:49.765Z,3.0
2019-01-27T21:56:50.033Z,3.7
2019-01-27T21:58:50.101Z,3.7
2019-01-27T22:00:50.132Z,3.2
2019-01-27T22:02:50.329Z,2.9
2019-01-27T22:04:49.701Z,3.1
2019-01-27T22:06:49.993Z,2.8
2019-01-27T22:08:50.097Z,2.8
2019-01-27T22:10:50.215Z,3.5
2019-01-27T22:12:50.309Z,2.9
2019-01-27T22:14:49.472Z,3.3
2019-01-27T22:16:49.863Z,3.3
2019-01-27T22:18:49.931Z,3.3
2019-01-27T22:20:50.074Z,3.3
2019-01-27T22:22:50.186Z,2.9
2019-01-27T22:24:50.315Z,3.4
2019-01-27T22:26:49.667Z,3.4
2019-01-27T22:28:49.686Z,3.5
2019-01-27T22:30:49.717Z,3.4
2019-01-27T22:32:49.745Z,3.4
2019-01-27T22:34:49.993Z,3.0
2019-01-27T22:36:50.384Z,3.0
2019-01-27T22:38:49.432Z,4.1
2019-01-27T22:40:49.579Z,2.3
2019-01-27T22:42:49.670Z,2.5
2019-01-27T22:44:49.761Z,2.4
2019-01-27T22:46:50.086Z,2.4
2019-01-27T22:48:50.166Z,2.4
2019-01-27T22:50:50.188Z,2.9
2019-01-27T22:52:50.245Z,2.9
2019-01-27T22:54:50.300Z,2.9
2019-01-27T22:56:49.738Z,2.9
2019-01-27T22:58:49.725Z,2.5
2019-01-27T23:00:49.710Z,2.8
2019-01-27T23:02:49.827Z,2.7
2019-01-27T23:04:50.268Z,2.7
2019-01-27T23:06:49.648Z,2.8
2019-01-27T23:08:49.644Z,2.7
2019-01-27T23:10:49.720Z,3.3
2019-01-27T23:12:49.704Z,3.5
2019-01-27T23:14:49.699Z,3.5
2019-01-27T23:16:49.809Z,3.1
2019-01-27T23:18:49.898Z,3.2
2019-01-27T23:20:49.982Z,3.2
2019-01-27T23:22:50.011Z,3.4
2019-01-27T23:24:50.004Z,3.4
2019-01-27T23:26:50.319Z,3.1
2019-01-27T23:28:50.286Z,3.3
2019-01-27T23:30:50.310Z,3.4
2019-01-27T23:32:50.308Z,3.4
2019-01-27T23:34:49.725Z,3.4
2019-01-27T23:36:49.926Z,3.9
2019-01-27T23:38:49.848Z,3.4
2019-01-27T23:40:49.857Z,3.4
2019-01-27T23:42:49.942Z,3.0
2019-01-27T23:44:49.982Z,2.8
2019-01-27T23:46:50.090Z,3.7
2019-01-27T23:48:50.098Z,3.2
2019-01-27T23:50:50.175Z,3.2
2019-01-27T23:52:50.293Z,3.5
2019-01-27T23:54:50.249Z,3.3
2019-01-27T23:56:49.596Z,3.6
2019-01-27T23:58:49.544Z,3.9
